createdAt,value
2022-10-24T00:01:16.651Z,8.68
2022-10-24T00:03:43.571Z,9.68
2022-10-24T00:06:11.380Z,8.98
2022-10-24T00:08:38.891Z,8.50
2022-10-24T00:11:14.723Z,8.50
2022-10-24T00:13:41.939Z,9.80
2022-10-24T00:16:09.227Z,9.20
2022-10-24T00:18:35.988Z,8.98
2022-10-24T00:21:03.271Z,8.48
2022-10-24T00:23:30.034Z,8.52
2022-10-24T00:25:56.910Z,9.23
2022-10-24T00:28:23.727Z,8.40
2022-10-24T00:30:53.317Z,8.15
2022-10-24T00:33:20.205Z,8.60
2022-10-24T00:35:46.780Z,9.30
2022-10-24T00:38:13.571Z,9.18
2022-10-24T00:40:40.623Z,8.80
2022-10-24T00:43:14.891Z,8.05
2022-10-24T00:45:48.435Z,8.82
2022-10-24T00:48:35.086Z,8.35
2022-10-24T00:51:11.184Z,9.10
2022-10-24T00:53:43.633Z,8.57
2022-10-24T00:56:13.003Z,8.68
2022-10-24T00:58:43.345Z,8.45
2022-10-24T01:01:10.770Z,9.05
2022-10-24T01:03:38.155Z,7.85
2022-10-24T01:06:44.269Z,8.45
2022-10-24T01:09:47.566Z,8.20
2022-10-24T01:12:39.558Z,8.07
2022-10-24T01:15:47.942Z,7.93
2022-10-24T01:18:28.417Z,7.57
2022-10-24T01:21:24.969Z,7.22
2022-10-24T01:24:17.370Z,7.90
2022-10-24T01:27:12.290Z,7.75
2022-10-24T01:29:51.109Z,7.38
2022-10-24T01:33:10.430Z,7.60
2022-10-24T01:36:00.226Z,6.65
2022-10-24T01:38:39.018Z,6.40
2022-10-24T01:41:10.062Z,6.60
2022-10-24T01:43:43.010Z,7.63
2022-10-24T01:46:15.547Z,6.35
2022-10-24T01:48:49.295Z,6.20
2022-10-24T01:51:20.078Z,6.65
2022-10-24T01:53:48.323Z,6.95
2022-10-24T01:56:15.207Z,6.75
2022-10-24T01:58:41.787Z,6.35
2022-10-24T02:01:14.073Z,7.93
2022-10-24T02:06:34.538Z,6.78
2022-10-24T02:09:07.688Z,6.28
2022-10-24T02:11:35.461Z,7.00
2022-10-24T02:14:10.567Z,5.95
2022-10-24T02:16:37.581Z,5.80
2022-10-24T02:19:05.041Z,6.20
2022-10-24T02:21:44.921Z,6.45
2022-10-24T02:24:21.936Z,6.20
2022-10-24T02:27:16.725Z,6.13
2022-10-24T02:30:12.618Z,5.10
2022-10-24T02:32:46.746Z,4.93
2022-10-24T02:35:16.438Z,5.30
2022-10-24T02:37:47.606Z,4.40
2022-10-24T02:40:17.145Z,4.47
2022-10-24T02:42:46.190Z,4.95
2022-10-24T02:45:15.416Z,4.43
2022-10-24T02:47:45.049Z,4.47
2022-10-24T02:50:12.768Z,4.60
2022-10-24T02:52:41.396Z,4.50
2022-10-24T02:55:08.654Z,5.03
2022-10-24T02:57:35.300Z,4.90
2022-10-24T03:00:02.195Z,4.60
2022-10-24T03:02:28.776Z,4.72
2022-10-24T03:04:55.370Z,5.30
2022-10-24T03:07:22.150Z,4.95
2022-10-24T03:09:48.832Z,4.50
2022-10-24T03:12:16.927Z,4.90
2022-10-24T03:14:45.106Z,4.75
2022-10-24T03:17:11.759Z,4.22
2022-10-24T03:19:38.620Z,4.47
2022-10-24T03:22:05.330Z,4.65
2022-10-24T03:24:43.819Z,4.07
2022-10-24T03:27:18.764Z,4.22
2022-10-24T03:29:45.370Z,4.13
2022-10-24T03:32:11.983Z,4.35
2022-10-24T03:34:38.809Z,3.85
2022-10-24T03:37:05.418Z,4.20
2022-10-24T03:39:32.008Z,4.30
2022-10-24T03:41:59.492Z,4.90
2022-10-24T03:44:26.106Z,4.00
2022-10-24T03:46:52.733Z,3.83
2022-10-24T03:49:19.363Z,5.55
2022-10-24T03:51:46.178Z,7.05
2022-10-24T03:54:15.247Z,7.03
2022-10-24T03:56:48.038Z,8.85
2022-10-24T03:59:15.401Z,9.73
2022-10-24T04:01:42.264Z,9.50
2022-10-24T04:04:08.914Z,8.82
2022-10-24T04:06:36.653Z,9.68
2022-10-24T04:09:03.996Z,9.68
2022-10-24T04:11:30.658Z,7.63
2022-10-24T04:13:57.807Z,9.13
2022-10-24T04:16:24.541Z,8.38
2022-10-24T04:18:51.427Z,8.63
2022-10-24T04:21:21.524Z,8.18
2022-10-24T04:23:48.883Z,8.43
2022-10-24T04:26:17.251Z,7.15
2022-10-24T04:28:44.659Z,7.13
2022-10-24T04:31:11.232Z,7.03
2022-10-24T04:33:38.169Z,7.28
2022-10-24T04:36:05.546Z,6.50
2022-10-24T04:38:33.624Z,6.18
2022-10-24T04:41:00.876Z,5.90
2022-10-24T04:43:27.793Z,6.20
2022-10-24T04:45:54.382Z,6.35
2022-10-24T04:48:21.111Z,6.70
2022-10-24T04:50:48.391Z,6.45
2022-10-24T04:53:15.715Z,5.75
2022-10-24T04:55:42.401Z,6.45
2022-10-24T04:58:09.266Z,6.43
2022-10-24T05:00:36.093Z,6.68
2022-10-24T05:03:03.154Z,6.22
2022-10-24T05:05:29.743Z,6.63
2022-10-24T05:07:56.394Z,6.20
2022-10-24T05:10:23.051Z,6.10
2022-10-24T05:12:49.738Z,6.15
2022-10-24T05:15:18.555Z,5.93
2022-10-24T05:17:45.214Z,6.75
2022-10-24T05:20:12.012Z,7.47
2022-10-24T05:22:38.647Z,6.97
2022-10-24T05:25:06.389Z,6.55
2022-10-24T05:27:32.966Z,6.68
2022-10-24T05:29:59.635Z,6.50
2022-10-24T05:32:26.678Z,7.40
2022-10-24T05:34:53.268Z,7.60
2022-10-24T05:37:20.198Z,6.93
2022-10-24T05:39:46.837Z,6.40
2022-10-24T05:42:13.467Z,6.80
2022-10-24T05:44:40.056Z,8.07
2022-10-24T05:47:06.954Z,6.88
2022-10-24T05:49:34.016Z,7.13
2022-10-24T05:52:00.640Z,7.88
2022-10-24T05:54:33.318Z,7.28
2022-10-24T05:57:09.441Z,7.15
2022-10-24T05:59:36.298Z,6.45
2022-10-24T06:02:03.019Z,5.97
2022-10-24T06:04:29.716Z,6.30
2022-10-24T06:06:56.367Z,6.68
2022-10-24T06:09:22.965Z,6.97
2022-10-24T06:11:49.767Z,6.47
2022-10-24T06:14:16.974Z,6.15
2022-10-24T06:16:43.589Z,5.93
2022-10-24T06:19:10.171Z,6.03
2022-10-24T06:21:36.818Z,5.43
2022-10-24T06:24:03.874Z,5.97
2022-10-24T06:26:30.462Z,5.88
2022-10-24T06:28:57.131Z,6.22
2022-10-24T06:31:25.727Z,5.68
2022-10-24T06:33:54.147Z,5.38
2022-10-24T06:36:21.289Z,5.95
2022-10-24T06:38:48.750Z,5.68
2022-10-24T06:41:17.244Z,5.30
2022-10-24T06:43:44.025Z,6.03
2022-10-24T06:46:13.598Z,5.82
2022-10-24T06:48:40.248Z,6.10
2022-10-24T06:51:07.641Z,5.90
2022-10-24T06:53:34.485Z,6.57
2022-10-24T06:56:06.455Z,5.78
2022-10-24T06:58:37.109Z,6.30
2022-10-24T07:01:19.231Z,5.18
2022-10-24T07:03:46.094Z,6.32
2022-10-24T07:08:56.907Z,6.28
2022-10-24T07:11:24.027Z,6.00
2022-10-24T07:13:50.683Z,5.50
2022-10-24T07:16:18.082Z,6.40
2022-10-24T07:18:45.627Z,6.35
2022-10-24T07:21:19.942Z,5.78
2022-10-24T07:23:46.859Z,5.95
2022-10-24T07:26:15.306Z,6.07
2022-10-24T07:28:44.598Z,5.68
2022-10-24T07:31:14.814Z,5.35
2022-10-24T07:33:41.467Z,5.15
2022-10-24T07:36:08.601Z,5.30
2022-10-24T07:38:35.358Z,6.25
2022-10-24T07:41:05.782Z,5.97
2022-10-24T07:43:32.747Z,6.22
2022-10-24T07:48:30.995Z,6.43
2022-10-24T07:50:57.652Z,5.40
2022-10-24T07:53:26.084Z,5.88
2022-10-24T07:55:54.545Z,6.13
2022-10-24T07:58:21.294Z,6.10
2022-10-24T08:00:47.926Z,5.50
2022-10-24T08:03:14.703Z,5.82
2022-10-24T08:05:42.401Z,5.70
2022-10-24T08:08:27.402Z,5.50
2022-10-24T08:10:55.990Z,5.45
2022-10-24T08:13:22.658Z,6.32
2022-10-24T08:15:49.257Z,5.60
2022-10-24T08:18:15.876Z,5.88
2022-10-24T08:20:42.458Z,5.15
2022-10-24T08:23:09.433Z,5.88
2022-10-24T08:25:40.553Z,5.18
2022-10-24T08:28:09.078Z,5.55
2022-10-24T08:30:35.960Z,4.72
2022-10-24T08:33:02.627Z,4.88
2022-10-24T08:35:29.449Z,5.65
2022-10-24T08:37:56.054Z,5.38
2022-10-24T08:40:22.723Z,5.45
2022-10-24T08:42:49.681Z,5.50
2022-10-24T08:45:36.178Z,5.07
2022-10-24T08:48:09.867Z,4.47
2022-10-24T08:50:41.754Z,5.47
2022-10-24T08:53:30.051Z,4.82
2022-10-24T08:56:00.101Z,5.53
2022-10-24T08:58:31.638Z,4.90
2022-10-24T09:01:02.459Z,5.82
2022-10-24T09:03:56.077Z,4.53
2022-10-24T09:06:26.364Z,4.63
2022-10-24T09:08:56.270Z,5.93
2022-10-24T09:11:45.470Z,5.00
2022-10-24T09:14:29.673Z,4.68
2022-10-24T09:17:29.234Z,4.30
2022-10-24T09:20:35.222Z,4.72
2022-10-24T09:23:05.832Z,4.72
2022-10-24T09:25:36.596Z,4.93
2022-10-24T09:28:05.654Z,4.57
2022-10-24T09:30:33.561Z,4.75
2022-10-24T09:33:24.402Z,4.65
2022-10-24T09:35:54.506Z,5.30
2022-10-24T09:38:33.418Z,5.13
2022-10-24T09:41:19.444Z,4.68
2022-10-24T09:43:53.368Z,4.13
2022-10-24T09:46:23.953Z,4.60
2022-10-24T09:49:22.551Z,4.50
2022-10-24T09:52:19.696Z,4.75
2022-10-24T09:54:47.324Z,5.03
2022-10-24T09:57:17.837Z,4.93
2022-10-24T10:00:00.411Z,4.68
2022-10-24T10:05:23.983Z,4.43
2022-10-24T10:07:51.594Z,4.88
2022-10-24T10:10:34.405Z,5.28
2022-10-24T10:13:24.682Z,4.00
2022-10-24T10:16:02.753Z,4.78
2022-10-24T10:18:34.961Z,4.30
2022-10-24T10:23:53.984Z,4.40
2022-10-24T10:26:42.713Z,5.13
2022-10-24T10:29:29.523Z,5.63
2022-10-24T10:32:24.327Z,5.18
2022-10-24T10:35:11.482Z,5.55
2022-10-24T10:37:48.456Z,4.47
2022-10-24T10:40:44.268Z,3.97
2022-10-24T10:43:35.079Z,4.78
2022-10-24T10:46:44.554Z,5.28
2022-10-24T10:49:28.069Z,4.30
2022-10-24T10:52:00.969Z,4.95
2022-10-24T10:55:29.259Z,4.95
2022-10-24T10:58:41.308Z,5.13
2022-10-24T11:01:39.349Z,5.10
2022-10-24T11:04:53.053Z,5.10
2022-10-24T11:07:51.475Z,5.15
2022-10-24T11:10:22.912Z,5.30
2022-10-24T11:12:49.605Z,5.20
2022-10-24T11:15:27.214Z,5.25
2022-10-24T11:21:21.505Z,4.82
2022-10-24T11:26:52.792Z,5.15
2022-10-24T11:29:51.266Z,5.05
2022-10-24T11:32:55.410Z,4.35
2022-10-24T11:35:37.197Z,4.90
2022-10-24T11:38:13.765Z,5.18
2022-10-24T11:40:43.747Z,3.78
2022-10-24T11:43:24.746Z,3.90
2022-10-24T11:46:31.569Z,4.60
2022-10-24T11:49:03.176Z,4.95
2022-10-24T11:51:55.256Z,4.72
2022-10-24T11:54:29.941Z,4.28
2022-10-24T11:57:02.056Z,4.72
2022-10-24T11:59:30.643Z,4.40
2022-10-24T12:03:02.871Z,4.38
2022-10-24T12:06:05.172Z,4.55
2022-10-24T12:09:18.136Z,4.25
2022-10-24T12:15:11.893Z,5.15
2022-10-24T12:18:05.509Z,4.32
2022-10-24T12:20:33.071Z,3.83
2022-10-24T12:23:02.087Z,3.55
2022-10-24T12:25:35.669Z,3.65
2022-10-24T12:28:12.217Z,4.38
2022-10-24T12:30:39.672Z,3.75
2022-10-24T12:33:27.065Z,3.78
2022-10-24T12:35:57.315Z,4.47
2022-10-24T12:38:58.778Z,3.53
2022-10-24T12:41:39.507Z,3.70
2022-10-24T12:44:44.960Z,4.28
2022-10-24T12:47:34.890Z,3.30
2022-10-24T12:50:40.505Z,4.03
2022-10-24T12:53:19.939Z,3.38
2022-10-24T12:56:11.802Z,2.97
2022-10-24T12:58:42.687Z,2.97
2022-10-24T13:01:27.490Z,3.28
2022-10-24T13:04:29.054Z,3.58
2022-10-24T13:07:50.584Z,3.45
2022-10-24T13:10:48.017Z,3.42
2022-10-24T13:13:54.126Z,3.08
2022-10-24T13:17:00.430Z,3.00
2022-10-24T13:19:27.990Z,3.03
2022-10-24T13:21:57.297Z,3.25
2022-10-24T13:24:35.567Z,2.95
2022-10-24T13:27:30.156Z,2.80
2022-10-24T13:30:03.445Z,3.13
2022-10-24T13:32:36.001Z,2.67
2022-10-24T13:35:05.703Z,2.92
2022-10-24T13:37:40.753Z,2.55
2022-10-24T13:40:33.255Z,2.55
2022-10-24T13:43:07.532Z,2.88
2022-10-24T13:46:13.120Z,2.53
2022-10-24T13:48:48.102Z,2.95
2022-10-24T13:51:25.706Z,2.78
2022-10-24T13:54:04.019Z,2.63
2022-10-24T13:56:37.476Z,2.88
2022-10-24T13:59:04.171Z,2.88
2022-10-24T14:01:31.462Z,2.45
2022-10-24T14:04:00.667Z,3.20
2022-10-24T14:06:36.152Z,2.55
2022-10-24T14:09:10.254Z,2.58
2022-10-24T14:11:43.873Z,2.17
2022-10-24T14:14:32.343Z,2.40
2022-10-24T14:17:23.881Z,2.58
2022-10-24T14:19:55.476Z,1.90
2022-10-24T14:22:27.866Z,2.80
2022-10-24T14:27:21.646Z,2.72
2022-10-24T14:29:58.901Z,2.63
2022-10-24T14:32:28.058Z,2.35
2022-10-24T14:34:57.251Z,2.25
2022-10-24T14:37:30.589Z,2.97
2022-10-24T14:39:57.890Z,2.30
2022-10-24T14:42:25.654Z,2.58
2022-10-24T14:44:57.480Z,2.97
2022-10-24T14:47:34.418Z,2.72
2022-10-24T14:50:01.068Z,2.42
2022-10-24T14:52:37.266Z,2.38
2022-10-24T14:55:24.751Z,2.72
2022-10-24T14:57:52.896Z,2.20
2022-10-24T15:00:22.784Z,1.90
2022-10-24T15:02:51.785Z,2.22
2022-10-24T15:05:36.434Z,2.30
2022-10-24T15:08:39.598Z,2.45
2022-10-24T15:11:35.771Z,2.75
2022-10-24T15:14:07.054Z,2.20
2022-10-24T15:16:40.734Z,2.58
2022-10-24T15:19:14.731Z,2.22
2022-10-24T15:21:44.073Z,2.92
2022-10-24T15:24:25.228Z,2.30
2022-10-24T15:26:51.951Z,2.80
2022-10-24T15:29:23.149Z,2.80
2022-10-24T15:31:51.943Z,3.15
2022-10-24T15:34:23.872Z,2.60
2022-10-24T15:36:52.702Z,2.95
2022-10-24T15:39:22.344Z,2.90
2022-10-24T15:41:49.391Z,2.17
2022-10-24T15:44:19.335Z,2.50
2022-10-24T15:46:46.672Z,2.67
2022-10-24T15:49:14.204Z,2.65
2022-10-24T15:51:45.950Z,3.25
2022-10-24T15:54:17.478Z,2.78
2022-10-24T15:56:44.054Z,2.60
2022-10-24T15:59:10.614Z,3.00
2022-10-24T16:01:44.488Z,2.22
2022-10-24T16:04:11.543Z,2.50
2022-10-24T16:06:38.114Z,2.38
2022-10-24T16:09:16.090Z,2.83
2022-10-24T16:11:42.926Z,3.00
2022-10-24T16:14:17.620Z,2.60
2022-10-24T16:16:44.961Z,3.45
2022-10-24T16:19:11.768Z,2.00
2022-10-24T16:21:40.001Z,3.03
2022-10-24T16:24:07.734Z,2.90
2022-10-24T16:26:35.076Z,2.15
2022-10-24T16:29:01.662Z,3.03
2022-10-24T16:31:28.247Z,2.45
2022-10-24T16:33:54.833Z,2.38
2022-10-24T16:36:24.601Z,2.38
2022-10-24T16:38:51.864Z,2.35
2022-10-24T16:41:24.005Z,2.40
2022-10-24T16:43:53.680Z,2.78
2022-10-24T16:46:21.401Z,2.20
2022-10-24T16:48:48.995Z,2.53
2022-10-24T16:51:19.454Z,1.80
2022-10-24T16:53:46.102Z,2.67
2022-10-24T16:56:14.176Z,2.90
2022-10-24T16:58:41.209Z,4.80
2022-10-24T17:01:11.003Z,5.10
2022-10-24T17:03:38.510Z,4.18
2022-10-24T17:06:05.854Z,4.40
2022-10-24T17:08:32.785Z,4.82
2022-10-24T17:11:00.958Z,5.25
2022-10-24T17:13:29.026Z,4.72
2022-10-24T17:15:58.874Z,3.90
2022-10-24T17:18:26.739Z,5.05
2022-10-24T17:21:00.150Z,4.25
2022-10-24T17:23:27.822Z,4.63
2022-10-24T17:25:55.585Z,4.20
2022-10-24T17:28:22.543Z,3.65
2022-10-24T17:30:49.346Z,4.30
2022-10-24T17:33:16.277Z,3.50
2022-10-24T17:35:51.326Z,3.75
2022-10-24T17:38:42.300Z,3.50
2022-10-24T17:41:28.729Z,3.25
2022-10-24T17:43:55.674Z,3.40
2022-10-24T17:46:22.737Z,3.30
2022-10-24T17:48:50.611Z,3.38
2022-10-24T17:51:22.419Z,3.08
2022-10-24T17:53:49.422Z,3.35
2022-10-24T17:56:17.588Z,2.45
2022-10-24T17:58:51.053Z,3.10
2022-10-24T18:01:17.880Z,3.17
2022-10-24T18:03:44.787Z,3.30
2022-10-24T18:06:12.667Z,3.80
2022-10-24T18:08:39.296Z,2.67
2022-10-24T18:11:09.062Z,2.85
2022-10-24T18:13:37.259Z,2.90
2022-10-24T18:16:11.989Z,2.47
2022-10-24T18:18:42.827Z,2.78
2022-10-24T18:21:21.584Z,2.88
2022-10-24T18:23:48.756Z,2.65
2022-10-24T18:26:20.838Z,2.83
2022-10-24T18:28:49.875Z,2.67
2022-10-24T18:31:19.765Z,2.15
2022-10-24T18:33:46.849Z,2.45
2022-10-24T18:36:19.353Z,2.13
2022-10-24T18:38:46.123Z,2.10
2022-10-24T18:42:09.926Z,2.15
2022-10-24T18:44:37.798Z,2.30
2022-10-24T18:47:06.977Z,2.05
2022-10-24T18:49:35.165Z,1.85
2022-10-24T18:52:17.833Z,2.05
2022-10-24T18:54:58.488Z,1.85
2022-10-24T18:57:31.297Z,1.80
2022-10-24T19:03:14.574Z,1.75
2022-10-24T19:05:47.797Z,1.85
2022-10-24T19:08:24.179Z,1.60
2022-10-24T19:10:52.871Z,1.42
2022-10-24T19:13:19.520Z,2.10
2022-10-24T19:15:52.651Z,1.42
2022-10-24T19:18:19.624Z,2.00
2022-10-24T19:20:46.277Z,1.40
2022-10-24T19:23:14.672Z,1.15
2022-10-24T19:25:41.562Z,1.55
2022-10-24T19:28:11.036Z,1.50
2022-10-24T19:30:40.810Z,2.05
2022-10-24T19:33:07.586Z,1.35
2022-10-24T19:35:36.879Z,1.98
2022-10-24T19:38:03.566Z,1.80
2022-10-24T19:40:30.181Z,1.92
2022-10-24T19:42:57.580Z,1.77
2022-10-24T19:45:25.364Z,2.47
2022-10-24T19:47:55.794Z,1.45
2022-10-24T19:50:22.626Z,1.80
2022-10-24T19:52:49.195Z,2.15
2022-10-24T19:55:16.030Z,1.92
2022-10-24T19:57:42.744Z,2.55
2022-10-24T20:00:10.260Z,2.72
2022-10-24T20:02:36.830Z,2.78
2022-10-24T20:05:03.527Z,2.55
2022-10-24T20:07:30.371Z,2.28
2022-10-24T20:09:57.130Z,2.30
2022-10-24T20:12:23.798Z,2.90
2022-10-24T20:14:50.702Z,2.25
2022-10-24T20:17:17.281Z,3.28
2022-10-24T20:19:44.046Z,2.33
2022-10-24T20:22:10.691Z,2.38
2022-10-24T20:24:37.322Z,2.30
2022-10-24T20:27:04.096Z,2.45
2022-10-24T20:29:30.686Z,2.53
2022-10-24T20:31:57.493Z,2.08
2022-10-24T20:34:24.262Z,2.72
2022-10-24T20:36:50.876Z,2.15
2022-10-24T20:39:20.913Z,1.92
2022-10-24T20:41:51.764Z,2.65
2022-10-24T20:44:20.887Z,1.98
2022-10-24T20:46:47.665Z,2.22
2022-10-24T20:49:14.241Z,2.35
2022-10-24T20:51:42.430Z,2.17
2022-10-24T20:54:10.352Z,2.63
2022-10-24T20:56:42.050Z,2.53
2022-10-24T20:59:11.996Z,1.88
2022-10-24T21:01:38.651Z,2.15
2022-10-24T21:04:05.409Z,1.98
2022-10-24T21:06:33.994Z,1.98
2022-10-24T21:11:35.549Z,2.03
2022-10-24T21:14:05.139Z,1.73
2022-10-24T21:16:32.477Z,1.75
2022-10-24T21:19:00.038Z,1.92
2022-10-24T21:21:27.109Z,1.50
2022-10-24T21:23:55.929Z,1.55
2022-10-24T21:26:23.258Z,1.83
2022-10-24T21:28:59.328Z,1.98
2022-10-24T21:31:35.426Z,1.40
2022-10-24T21:34:02.355Z,1.92
2022-10-24T21:36:28.978Z,1.60
2022-10-24T21:38:59.762Z,1.92
2022-10-24T21:41:27.739Z,1.48
2022-10-24T21:43:55.144Z,1.73
2022-10-24T21:46:24.167Z,1.73
2022-10-24T21:48:52.156Z,1.65
2022-10-24T21:51:30.153Z,1.65
2022-10-24T21:54:13.753Z,1.42
2022-10-24T21:56:40.590Z,1.65
2022-10-24T21:59:11.701Z,1.40
2022-10-24T22:01:39.007Z,1.23
2022-10-24T22:04:06.948Z,1.55
2022-10-24T22:06:35.217Z,1.77
2022-10-24T22:09:02.805Z,1.73
2022-10-24T22:11:31.275Z,1.30
2022-10-24T22:13:58.842Z,1.50
2022-10-24T22:16:28.022Z,1.83
2022-10-24T22:18:55.167Z,1.40
2022-10-24T22:21:33.684Z,1.58
2022-10-24T22:24:09.467Z,1.77
2022-10-24T22:26:36.784Z,1.60
2022-10-24T22:29:05.314Z,1.73
2022-10-24T22:31:32.286Z,1.30
2022-10-24T22:33:59.072Z,1.42
2022-10-24T22:37:08.950Z,2.15
2022-10-24T22:39:36.026Z,1.90
2022-10-24T22:42:03.050Z,2.05
2022-10-24T22:44:30.191Z,1.90
2022-10-24T22:47:24.100Z,2.15
2022-10-24T22:50:31.442Z,1.75
2022-10-24T22:52:58.601Z,2.03
2022-10-24T22:55:32.847Z,2.35
2022-10-24T22:57:59.981Z,1.27
2022-10-24T23:00:27.191Z,1.75
2022-10-24T23:03:01.874Z,1.98
2022-10-24T23:06:00.055Z,2.13
2022-10-24T23:08:37.709Z,1.75
2022-10-24T23:11:04.792Z,1.52
2022-10-24T23:13:31.991Z,2.10
2022-10-24T23:16:53.014Z,1.50
2022-10-24T23:19:30.632Z,1.83
2022-10-24T23:22:07.255Z,1.63
2022-10-24T23:24:34.210Z,1.13
2022-10-24T23:27:18.531Z,1.58
2022-10-24T23:29:46.724Z,1.48
2022-10-24T23:32:24.133Z,1.45
2022-10-24T23:34:51.799Z,1.33
2022-10-24T23:37:33.451Z,1.42
2022-10-24T23:40:02.158Z,1.27
2022-10-24T23:42:29.214Z,1.38
2022-10-24T23:44:56.290Z,1.13
2022-10-24T23:47:42.773Z,1.00
2022-10-24T23:50:40.375Z,1.13
2022-10-24T23:53:20.735Z,1.48
2022-10-24T23:55:47.857Z,1.33
2022-10-24T23:58:14.908Z,1.30
